createdAt,value
2019-02-01T00:00:45.724Z,0
2019-02-01T00:01:55.674Z,0
2019-02-01T00:03:05.612Z,0
2019-02-01T00:04:15.548Z,0
2019-02-01T00:05:25.218Z,0
2019-02-01T00:06:35.164Z,0
2019-02-01T00:07:44.873Z,0
2019-02-01T00:08:54.563Z,0
2019-02-01T00:10:04.000Z,0
2019-02-01T00:11:13.440Z,0
2019-02-01T00:12:23.450Z,0
2019-02-01T00:13:33.392Z,0
2019-02-01T00:14:43.334Z,0
2019-02-01T00:15:53.272Z,0
2019-02-01T00:17:03.244Z,0
2019-02-01T00:18:16.548Z,0
2019-02-01T00:19:26.481Z,0
2019-02-01T00:20:36.414Z,0
2019-02-01T00:21:46.353Z,0
2019-02-01T00:22:56.043Z,0
2019-02-01T00:24:05.980Z,0
2019-02-01T00:25:15.919Z,0
2019-02-01T00:26:25.852Z,0
2019-02-01T00:27:35.276Z,0
2019-02-01T00:28:45.216Z,0
2019-02-01T00:29:54.897Z,0
2019-02-01T00:31:04.599Z,0
2019-02-01T00:32:14.058Z,0
2019-02-01T00:33:36.260Z,0
2019-02-01T00:34:46.202Z,0
2019-02-01T00:35:56.244Z,0
2019-02-01T00:37:06.186Z,0
2019-02-01T00:38:15.875Z,0
2019-02-01T00:39:25.821Z,0
2019-02-01T00:40:35.510Z,0
2019-02-01T00:41:44.928Z,0
2019-02-01T00:42:54.865Z,0
2019-02-01T00:44:04.549Z,0
2019-02-01T00:45:14.506Z,0
2019-02-01T00:46:24.455Z,0
2019-02-01T00:47:34.142Z,0
2019-02-01T00:48:43.832Z,0
2019-02-01T00:49:53.522Z,0
2019-02-01T00:51:02.970Z,0
2019-02-01T00:52:12.910Z,0
2019-02-01T00:53:22.858Z,0
2019-02-01T00:54:32.524Z,0
2019-02-01T00:55:42.209Z,0
2019-02-01T00:56:52.152Z,0
2019-02-01T00:58:01.831Z,0
2019-02-01T00:59:11.854Z,0
2019-02-01T01:00:21.815Z,0
2019-02-01T01:01:31.774Z,0
2019-02-01T01:02:41.718Z,0
2019-02-01T01:03:51.400Z,0
2019-02-01T01:05:01.341Z,0
2019-02-01T01:06:11.281Z,0
2019-02-01T01:07:21.250Z,0
2019-02-01T01:08:31.188Z,0
2019-02-01T01:09:40.873Z,0
2019-02-01T01:10:50.565Z,0
2019-02-01T01:12:00.255Z,0
2019-02-01T01:13:10.204Z,0
2019-02-01T01:14:20.147Z,0
2019-02-01T01:15:30.092Z,0
2019-02-01T01:16:40.043Z,0
2019-02-01T01:17:49.979Z,0
2019-02-01T01:18:59.920Z,0
2019-02-01T01:20:09.983Z,0
2019-02-01T01:21:19.916Z,0
2019-02-01T01:22:29.850Z,0
2019-02-01T01:23:39.860Z,0
2019-02-01T01:24:49.550Z,0
2019-02-01T01:25:59.488Z,0
2019-02-01T01:27:09.176Z,0
2019-02-01T01:28:19.117Z,0
2019-02-01T01:29:29.152Z,0
2019-02-01T01:30:39.182Z,0
2019-02-01T01:31:48.602Z,0
2019-02-01T01:32:58.548Z,0
2019-02-01T01:34:08.483Z,0
2019-02-01T01:35:18.415Z,0
2019-02-01T01:36:28.104Z,0
2019-02-01T01:37:38.044Z,0
2019-02-01T01:38:47.987Z,0
2019-02-01T01:39:57.952Z,0
2019-02-01T01:41:07.382Z,0
2019-02-01T01:42:17.313Z,0
2019-02-01T01:43:27.259Z,0
2019-02-01T01:44:37.298Z,0
2019-02-01T01:45:47.229Z,0
2019-02-01T01:46:57.159Z,0
2019-02-01T01:48:07.105Z,0
2019-02-01T01:49:17.035Z,0
2019-02-01T01:50:27.023Z,0
2019-02-01T01:51:36.957Z,0
2019-02-01T01:52:46.889Z,0
2019-02-01T01:53:56.333Z,0
2019-02-01T01:55:05.881Z,0
2019-02-01T01:56:15.551Z,0
2019-02-01T01:57:25.487Z,0
2019-02-01T01:58:35.592Z,0
2019-02-01T01:59:45.548Z,0
2019-02-01T02:00:54.984Z,0
2019-02-01T02:02:05.017Z,0
2019-02-01T02:03:14.962Z,0
2019-02-01T02:04:24.903Z,0
2019-02-01T02:05:34.834Z,0
2019-02-01T02:06:44.779Z,0
2019-02-01T02:07:54.449Z,0
2019-02-01T02:09:04.369Z,0
2019-02-01T02:10:14.313Z,0
2019-02-01T02:11:23.994Z,0
2019-02-01T02:12:33.667Z,0
2019-02-01T02:13:43.351Z,0
2019-02-01T02:14:53.045Z,0
2019-02-01T02:16:02.987Z,0
2019-02-01T02:17:12.924Z,0
2019-02-01T02:18:22.606Z,0
2019-02-01T02:19:32.566Z,0
2019-02-01T02:20:42.255Z,0
2019-02-01T02:21:52.300Z,0
2019-02-01T02:23:02.270Z,0
2019-02-01T02:24:12.207Z,0
2019-02-01T02:25:22.134Z,0
2019-02-01T02:26:32.069Z,0
2019-02-01T02:27:41.995Z,0
2019-02-01T02:28:52.035Z,0
2019-02-01T02:30:01.892Z,0
2019-02-01T02:31:11.857Z,0
2019-02-01T02:32:21.934Z,0
2019-02-01T02:33:31.879Z,0
2019-02-01T02:34:41.816Z,0
2019-02-01T02:35:51.541Z,0
2019-02-01T02:37:00.730Z,0
2019-02-01T02:38:10.668Z,0
2019-02-01T02:39:20.635Z,0
2019-02-01T02:40:30.329Z,0
2019-02-01T02:41:40.033Z,0
2019-02-01T02:42:49.752Z,0
2019-02-01T02:43:59.707Z,0
2019-02-01T02:45:09.408Z,0
2019-02-01T02:46:21.621Z,0
2019-02-01T02:47:31.315Z,0
2019-02-01T02:48:40.998Z,0
2019-02-01T02:49:50.953Z,0
2019-02-01T02:51:00.644Z,0
2019-02-01T02:52:10.578Z,0
2019-02-01T02:53:20.513Z,0
2019-02-01T02:54:30.291Z,0
2019-02-01T02:55:39.988Z,0
2019-02-01T02:56:49.942Z,0
2019-02-01T02:57:59.667Z,0
2019-02-01T02:59:09.609Z,0
2019-02-01T03:00:19.559Z,0
2019-02-01T03:01:29.255Z,0
2019-02-01T03:02:39.197Z,0
2019-02-01T03:03:49.183Z,0
2019-02-01T03:04:59.107Z,0
2019-02-01T03:06:09.039Z,0
2019-02-01T03:07:18.992Z,0
2019-02-01T03:08:28.948Z,0
2019-02-01T03:09:38.632Z,0
2019-02-01T03:10:48.564Z,0
2019-02-01T03:11:58.235Z,0
2019-02-01T03:13:07.932Z,0
2019-02-01T03:14:17.889Z,0
2019-02-01T03:15:27.838Z,0
2019-02-01T03:16:37.274Z,0
2019-02-01T03:17:46.952Z,0
2019-02-01T03:18:56.647Z,0
2019-02-01T03:20:06.809Z,0
2019-02-01T03:21:16.497Z,0
2019-02-01T03:22:26.322Z,0
2019-02-01T03:23:36.255Z,0
2019-02-01T03:24:45.938Z,0
2019-02-01T03:25:55.641Z,0
2019-02-01T03:27:05.332Z,0
2019-02-01T03:28:15.298Z,0
2019-02-01T03:29:25.238Z,0
2019-02-01T03:30:35.259Z,0
2019-02-01T03:31:45.276Z,0
2019-02-01T03:32:55.349Z,0
2019-02-01T03:34:05.289Z,0
2019-02-01T03:35:15.252Z,0
2019-02-01T03:36:24.697Z,0
2019-02-01T03:37:34.633Z,0
2019-02-01T03:38:44.562Z,0
2019-02-01T03:39:54.285Z,0
2019-02-01T03:41:04.237Z,0
2019-02-01T03:42:13.996Z,0
2019-02-01T03:43:23.984Z,0
2019-02-01T03:44:33.925Z,0
2019-02-01T03:45:43.867Z,0
2019-02-01T03:46:53.556Z,0
2019-02-01T03:48:03.507Z,0
2019-02-01T03:49:25.092Z,0
2019-02-01T03:50:35.157Z,0
2019-02-01T03:51:45.075Z,0
2019-02-01T03:52:55.208Z,0
2019-02-01T03:54:05.156Z,0
2019-02-01T03:55:14.850Z,0
2019-02-01T03:56:24.542Z,0
2019-02-01T03:57:34.227Z,0
2019-02-01T03:58:43.918Z,0
2019-02-01T03:59:53.867Z,0
2019-02-01T04:01:03.821Z,0
2019-02-01T04:02:13.516Z,0
2019-02-01T04:03:23.222Z,0
2019-02-01T04:04:32.891Z,0
2019-02-01T04:05:42.340Z,0
2019-02-01T04:06:52.285Z,0
2019-02-01T04:08:01.968Z,0
2019-02-01T04:09:11.910Z,0
2019-02-01T04:10:22.006Z,0
2019-02-01T04:11:31.680Z,0
2019-02-01T04:12:41.361Z,0
2019-02-01T04:13:51.059Z,0
2019-02-01T04:15:01.010Z,0
2019-02-01T04:16:10.456Z,0
2019-02-01T04:17:20.409Z,0
2019-02-01T04:18:30.340Z,0
2019-02-01T04:19:57.450Z,0
2019-02-01T04:21:07.142Z,0
2019-02-01T04:22:16.580Z,0
2019-02-01T04:23:26.262Z,0
2019-02-01T04:24:36.088Z,0
2019-02-01T04:25:46.020Z,0
2019-02-01T04:26:55.706Z,0
2019-02-01T04:28:05.648Z,0
2019-02-01T04:29:15.075Z,0
2019-02-01T04:30:25.047Z,0
2019-02-01T04:31:35.044Z,0
2019-02-01T04:32:45.169Z,0
2019-02-01T04:33:55.102Z,0
2019-02-01T04:35:05.319Z,0
2019-02-01T04:36:15.125Z,0
2019-02-01T04:37:24.812Z,0
2019-02-01T04:38:34.480Z,0
2019-02-01T04:39:44.415Z,0
2019-02-01T04:40:54.366Z,0
2019-02-01T04:42:04.318Z,0
2019-02-01T04:43:14.261Z,0
2019-02-01T04:44:24.021Z,0
2019-02-01T04:45:33.448Z,0
2019-02-01T04:46:43.136Z,0
2019-02-01T04:47:53.248Z,0
2019-02-01T04:49:03.211Z,0
2019-02-01T04:50:13.824Z,0
2019-02-01T04:51:23.871Z,0
2019-02-01T04:52:33.078Z,0
2019-02-01T04:53:43.009Z,0
2019-02-01T04:54:52.689Z,0
2019-02-01T04:56:02.614Z,0
2019-02-01T04:57:12.302Z,0
2019-02-01T04:58:22.238Z,0
2019-02-01T04:59:32.182Z,0
2019-02-01T05:00:42.317Z,0
2019-02-01T05:01:52.249Z,0
2019-02-01T05:03:02.215Z,0
2019-02-01T05:04:11.909Z,0
2019-02-01T05:05:21.898Z,0
2019-02-01T05:06:31.842Z,0
2019-02-01T05:07:41.787Z,0
2019-02-01T05:08:51.726Z,0
2019-02-01T05:10:01.678Z,0
2019-02-01T05:11:11.385Z,0
2019-02-01T05:12:21.070Z,0
2019-02-01T05:13:31.011Z,0
2019-02-01T05:14:40.973Z,0
2019-02-01T05:15:50.453Z,0
2019-02-01T05:17:00.137Z,0
2019-02-01T05:18:10.245Z,0
2019-02-01T05:19:19.938Z,0
2019-02-01T05:20:30.720Z,0
2019-02-01T05:21:40.660Z,0
2019-02-01T05:22:50.101Z,0
2019-02-01T05:24:00.053Z,0
2019-02-01T05:25:09.762Z,0
2019-02-01T05:26:19.206Z,0
2019-02-01T05:27:28.885Z,0
2019-02-01T05:28:38.584Z,0
2019-02-01T05:29:48.534Z,0
2019-02-01T05:30:58.494Z,0
2019-02-01T05:32:08.434Z,0
2019-02-01T05:33:18.110Z,0
2019-02-01T05:34:28.218Z,0
2019-02-01T05:35:38.188Z,0
2019-02-01T05:36:48.118Z,0
2019-02-01T05:37:58.064Z,0
2019-02-01T05:39:07.808Z,0
2019-02-01T05:40:17.590Z,0
2019-02-01T05:41:27.022Z,0
2019-02-01T05:42:36.946Z,0
2019-02-01T05:43:46.644Z,0
2019-02-01T05:44:56.329Z,0
2019-02-01T05:46:06.270Z,0
2019-02-01T05:47:15.696Z,0
2019-02-01T05:48:25.690Z,0
2019-02-01T05:49:35.712Z,0
2019-02-01T05:50:45.643Z,0
2019-02-01T05:51:55.575Z,0
2019-02-01T05:53:05.274Z,0
2019-02-01T05:54:15.200Z,0
2019-02-01T05:55:24.914Z,0
2019-02-01T05:56:34.864Z,0
2019-02-01T05:57:44.835Z,0
2019-02-01T05:58:54.846Z,0
2019-02-01T06:00:04.052Z,0
2019-02-01T06:01:13.734Z,0
2019-02-01T06:02:23.658Z,0
2019-02-01T06:03:33.603Z,0
2019-02-01T06:04:43.539Z,0
2019-02-01T06:05:53.234Z,0
2019-02-01T06:07:03.153Z,0
2019-02-01T06:08:13.089Z,0
2019-02-01T06:09:22.790Z,0
2019-02-01T06:10:32.760Z,0
2019-02-01T06:11:42.727Z,0
2019-02-01T06:12:52.687Z,0
2019-02-01T06:14:02.365Z,0
2019-02-01T06:15:12.316Z,0
2019-02-01T06:16:22.008Z,0
2019-02-01T06:17:31.945Z,0
2019-02-01T06:18:41.640Z,0
2019-02-01T06:19:51.557Z,0
2019-02-01T06:21:02.578Z,0
2019-02-01T06:22:12.660Z,0
2019-02-01T06:23:22.088Z,0
2019-02-01T06:24:32.028Z,0
2019-02-01T06:25:41.993Z,0
2019-02-01T06:26:51.937Z,0
2019-02-01T06:28:01.870Z,0
2019-02-01T06:29:11.582Z,0
2019-02-01T06:30:21.267Z,0
2019-02-01T06:31:32.006Z,0
2019-02-01T06:32:41.979Z,0
2019-02-01T06:33:51.435Z,0
2019-02-01T06:35:01.389Z,0
2019-02-01T06:36:10.837Z,0
2019-02-01T06:37:20.791Z,0
2019-02-01T06:38:30.749Z,0
2019-02-01T06:39:40.447Z,5
2019-02-01T06:40:50.381Z,5
2019-02-01T06:42:00.093Z,5
2019-02-01T06:43:10.178Z,5
2019-02-01T06:44:20.116Z,5
2019-02-01T06:45:29.813Z,5
2019-02-01T06:46:39.552Z,5
2019-02-01T06:47:49.541Z,5
2019-02-01T06:48:58.971Z,10
2019-02-01T06:50:08.946Z,10
2019-02-01T06:51:18.887Z,10
2019-02-01T06:52:28.578Z,10
2019-02-01T06:53:38.522Z,15
2019-02-01T06:54:48.457Z,15
2019-02-01T06:55:58.398Z,15
2019-02-01T06:57:08.371Z,15
2019-02-01T06:58:18.062Z,20
2019-02-01T06:59:28.019Z,20
2019-02-01T07:00:37.970Z,20
2019-02-01T07:01:47.696Z,25
2019-02-01T07:02:57.730Z,25
2019-02-01T07:04:07.698Z,25
2019-02-01T07:05:17.625Z,25
2019-02-01T07:06:27.327Z,25
2019-02-01T07:07:36.784Z,30
2019-02-01T07:08:46.712Z,30
2019-02-01T07:09:56.659Z,35
2019-02-01T07:11:06.361Z,35
2019-02-01T07:12:16.433Z,40
2019-02-01T07:13:26.412Z,40
2019-02-01T07:14:36.137Z,40
2019-02-01T07:15:46.076Z,40
2019-02-01T07:16:56.019Z,45
2019-02-01T07:18:06.069Z,45
2019-02-01T07:19:16.025Z,50
2019-02-01T07:20:25.954Z,50
2019-02-01T07:21:35.639Z,55
2019-02-01T07:22:45.598Z,55
2019-02-01T07:23:55.290Z,55
2019-02-01T07:25:04.753Z,55
2019-02-01T07:26:14.720Z,55
2019-02-01T07:27:24.149Z,55
2019-02-01T07:28:33.916Z,60
2019-02-01T07:29:43.603Z,60
2019-02-01T07:30:53.545Z,60
2019-02-01T07:32:03.487Z,60
2019-02-01T07:33:13.425Z,60
2019-02-01T07:34:24.458Z,60
2019-02-01T07:35:33.895Z,60
2019-02-01T07:36:43.331Z,60
2019-02-01T07:37:53.004Z,60
2019-02-01T07:39:02.948Z,60
2019-02-01T07:40:12.635Z,60
2019-02-01T07:41:22.318Z,65
2019-02-01T07:42:32.283Z,65
2019-02-01T07:43:41.957Z,70
2019-02-01T07:44:51.389Z,75
2019-02-01T07:46:01.331Z,80
2019-02-01T07:47:11.298Z,85
2019-02-01T07:48:21.249Z,90
2019-02-01T07:49:31.194Z,100
2019-02-01T07:50:40.880Z,105
2019-02-01T07:51:52.578Z,110
2019-02-01T07:53:02.694Z,120
2019-02-01T07:54:12.631Z,120
2019-02-01T07:55:22.584Z,120
2019-02-01T07:56:32.511Z,125
2019-02-01T07:57:42.461Z,125
2019-02-01T07:58:52.419Z,125
2019-02-01T08:00:01.852Z,125
2019-02-01T08:01:11.543Z,125
2019-02-01T08:02:21.475Z,130
2019-02-01T08:03:31.159Z,130
2019-02-01T08:04:41.105Z,135
2019-02-01T08:05:50.286Z,135
2019-02-01T08:07:00.215Z,140
2019-02-01T08:08:10.214Z,145
2019-02-01T08:09:20.181Z,145
2019-02-01T08:10:29.893Z,150
2019-02-01T08:11:39.822Z,155
2019-02-01T08:12:49.761Z,160
2019-02-01T08:13:59.205Z,165
2019-02-01T08:15:09.152Z,165
2019-02-01T08:16:19.116Z,165
2019-02-01T08:17:29.049Z,160
2019-02-01T08:18:38.988Z,160
2019-02-01T08:19:51.309Z,160
2019-02-01T08:21:03.385Z,150
2019-02-01T08:22:13.101Z,150
2019-02-01T08:23:23.158Z,155
2019-02-01T08:24:33.093Z,155
2019-02-01T08:25:42.832Z,160
2019-02-01T08:26:52.531Z,165
2019-02-01T08:28:02.012Z,170
2019-02-01T08:29:12.001Z,175
2019-02-01T08:30:21.941Z,185
2019-02-01T08:31:32.055Z,190
2019-02-01T08:32:41.501Z,185
2019-02-01T08:33:51.209Z,185
2019-02-01T08:35:00.903Z,190
2019-02-01T08:36:10.360Z,190
2019-02-01T08:37:19.832Z,190
2019-02-01T08:38:29.527Z,185
2019-02-01T08:39:38.958Z,185
2019-02-01T08:40:48.895Z,175
2019-02-01T08:41:58.613Z,165
2019-02-01T08:43:16.038Z,155
2019-02-01T08:44:25.981Z,150
2019-02-01T08:45:35.927Z,145
2019-02-01T08:46:45.637Z,145
2019-02-01T08:47:54.849Z,145
2019-02-01T08:49:04.828Z,150
2019-02-01T08:50:15.043Z,150
2019-02-01T08:51:25.001Z,155
2019-02-01T08:52:34.978Z,165
2019-02-01T08:53:44.681Z,165
2019-02-01T08:54:54.790Z,165
2019-02-01T08:56:04.225Z,160
2019-02-01T08:57:14.215Z,160
2019-02-01T08:58:24.179Z,155
2019-02-01T08:59:33.463Z,155
2019-02-01T09:00:43.421Z,145
2019-02-01T09:01:53.503Z,140
2019-02-01T09:03:03.230Z,135
2019-02-01T09:04:12.929Z,135
2019-02-01T09:05:22.947Z,140
2019-02-01T09:06:32.887Z,150
2019-02-01T09:07:42.709Z,165
2019-02-01T09:08:52.670Z,180
2019-02-01T09:10:02.726Z,185
2019-02-01T09:11:12.666Z,190
2019-02-01T09:12:22.670Z,195
2019-02-01T09:13:32.627Z,195
2019-02-01T09:14:42.389Z,200
2019-02-01T09:15:52.342Z,210
2019-02-01T09:17:02.286Z,215
2019-02-01T09:18:12.462Z,220
2019-02-01T09:19:22.166Z,230
2019-02-01T09:20:32.193Z,230
2019-02-01T09:21:53.006Z,225
2019-02-01T09:23:02.698Z,220
2019-02-01T09:24:12.431Z,215
2019-02-01T09:25:22.392Z,215
2019-02-01T09:26:32.357Z,210
2019-02-01T09:27:42.314Z,205
2019-02-01T09:28:52.260Z,205
2019-02-01T09:30:02.010Z,200
2019-02-01T09:31:12.028Z,200
2019-02-01T09:32:22.013Z,200
2019-02-01T09:33:32.035Z,195
2019-02-01T09:34:41.997Z,195
2019-02-01T09:35:51.728Z,195
2019-02-01T09:37:01.664Z,190
2019-02-01T09:38:11.620Z,190
2019-02-01T09:39:21.584Z,190
2019-02-01T09:40:31.535Z,195
2019-02-01T09:41:41.213Z,195
2019-02-01T09:42:51.158Z,195
2019-02-01T09:44:00.594Z,190
2019-02-01T09:45:12.114Z,190
2019-02-01T09:46:21.906Z,185
2019-02-01T09:47:31.604Z,180
2019-02-01T09:48:41.553Z,165
2019-02-01T09:49:51.502Z,150
2019-02-01T09:51:01.206Z,145
2019-02-01T09:52:15.100Z,140
2019-02-01T09:53:25.180Z,140
2019-02-01T09:54:35.162Z,140
2019-02-01T09:55:45.111Z,145
2019-02-01T09:56:55.056Z,150
2019-02-01T09:58:04.800Z,155
2019-02-01T09:59:14.777Z,165
2019-02-01T10:00:24.482Z,180
2019-02-01T10:01:34.504Z,190
2019-02-01T10:02:44.468Z,195
2019-02-01T10:04:00.797Z,200
2019-02-01T10:05:10.505Z,210
2019-02-01T10:06:20.433Z,220
2019-02-01T10:07:30.408Z,225
2019-02-01T10:08:39.873Z,225
2019-02-01T10:09:49.836Z,235
2019-02-01T10:10:59.854Z,235
2019-02-01T10:12:09.812Z,215
2019-02-01T10:13:19.532Z,205
2019-02-01T10:14:29.511Z,205
2019-02-01T10:15:39.211Z,200
2019-02-01T10:16:48.894Z,195
2019-02-01T10:17:58.662Z,195
2019-02-01T10:19:08.750Z,185
2019-02-01T10:20:18.712Z,180
2019-02-01T10:21:28.405Z,180
2019-02-01T10:22:38.353Z,190
2019-02-01T10:23:50.638Z,195
2019-02-01T10:25:00.158Z,195
2019-02-01T10:26:13.182Z,195
2019-02-01T10:27:23.120Z,190
2019-02-01T10:28:33.100Z,185
2019-02-01T10:29:43.186Z,185
2019-02-01T10:30:53.237Z,185
2019-02-01T10:32:02.690Z,180
2019-02-01T10:33:12.135Z,175
2019-02-01T10:34:21.838Z,165
2019-02-01T10:35:31.809Z,165
2019-02-01T10:36:41.775Z,175
2019-02-01T10:37:51.761Z,180
2019-02-01T10:39:01.928Z,180
2019-02-01T10:40:12.000Z,185
2019-02-01T10:41:21.964Z,185
2019-02-01T10:42:31.694Z,195
2019-02-01T10:43:41.642Z,200
2019-02-01T10:44:53.643Z,190
2019-02-01T10:46:03.790Z,185
2019-02-01T10:47:20.692Z,190
2019-02-01T10:48:30.672Z,190
2019-02-01T10:49:40.873Z,180
2019-02-01T10:50:50.823Z,165
2019-02-01T10:52:00.535Z,160
2019-02-01T10:53:10.288Z,155
2019-02-01T10:54:19.996Z,155
2019-02-01T10:55:31.677Z,160
2019-02-01T10:56:41.893Z,155
2019-02-01T10:57:51.851Z,145
2019-02-01T10:59:01.930Z,145
2019-02-01T11:00:13.325Z,150
2019-02-01T11:01:23.427Z,165
2019-02-01T11:02:33.354Z,185
2019-02-01T11:03:43.054Z,200
2019-02-01T11:04:52.538Z,215
2019-02-01T11:06:02.597Z,230
2019-02-01T11:07:15.041Z,235
2019-02-01T11:08:24.974Z,230
2019-02-01T11:09:34.670Z,220
2019-02-01T11:10:44.371Z,210
2019-02-01T11:11:54.072Z,205
2019-02-01T11:13:04.041Z,200
2019-02-01T11:14:13.496Z,190
2019-02-01T11:15:22.930Z,195
2019-02-01T11:16:36.773Z,185
2019-02-01T11:17:46.463Z,165
2019-02-01T11:18:55.918Z,155
2019-02-01T11:20:05.869Z,150
2019-02-01T11:21:15.567Z,145
2019-02-01T11:22:35.813Z,155
2019-02-01T11:23:46.174Z,165
2019-02-01T11:24:55.903Z,180
2019-02-01T11:26:05.841Z,185
2019-02-01T11:27:15.818Z,185
2019-02-01T11:28:25.518Z,175
2019-02-01T11:29:34.716Z,175
2019-02-01T11:30:44.674Z,180
2019-02-01T11:31:54.100Z,170
2019-02-01T11:33:04.046Z,160
2019-02-01T11:34:13.756Z,165
2019-02-01T11:35:23.452Z,170
2019-02-01T11:36:33.156Z,170
2019-02-01T11:37:42.855Z,175
2019-02-01T11:38:52.851Z,185
2019-02-01T11:40:02.850Z,185
2019-02-01T11:41:12.802Z,190
2019-02-01T11:42:22.524Z,205
2019-02-01T11:43:31.958Z,220
2019-02-01T11:44:41.906Z,235
2019-02-01T11:45:51.844Z,255
2019-02-01T11:47:01.558Z,265
2019-02-01T11:48:11.250Z,270
2019-02-01T11:49:21.210Z,265
2019-02-01T11:50:31.171Z,260
2019-02-01T11:51:41.112Z,260
2019-02-01T11:52:57.995Z,255
2019-02-01T11:54:08.054Z,245
2019-02-01T11:55:17.771Z,250
2019-02-01T11:56:27.226Z,250
2019-02-01T11:57:37.209Z,245
2019-02-01T11:58:46.421Z,235
2019-02-01T11:59:56.382Z,220
2019-02-01T12:01:07.602Z,210
2019-02-01T12:02:17.598Z,205
2019-02-01T12:03:27.564Z,210
2019-02-01T12:04:37.255Z,210
2019-02-01T12:05:47.205Z,205
2019-02-01T12:06:57.247Z,195
2019-02-01T12:08:07.206Z,185
2019-02-01T12:09:17.161Z,175
2019-02-01T12:10:27.111Z,175
2019-02-01T12:11:37.128Z,185
2019-02-01T12:12:47.096Z,190
2019-02-01T12:13:57.070Z,195
2019-02-01T12:15:07.014Z,190
2019-02-01T12:16:16.456Z,190
2019-02-01T12:17:26.140Z,195
2019-02-01T12:18:35.850Z,200
2019-02-01T12:19:45.810Z,210
2019-02-01T12:20:55.874Z,225
2019-02-01T12:22:05.583Z,230
2019-02-01T12:23:15.524Z,225
2019-02-01T12:24:25.219Z,220
2019-02-01T12:25:35.170Z,225
2019-02-01T12:26:45.124Z,230
2019-02-01T12:27:54.828Z,240
2019-02-01T12:29:04.758Z,255
2019-02-01T12:30:14.693Z,265
2019-02-01T12:31:29.423Z,270
2019-02-01T12:32:39.130Z,270
2019-02-01T12:33:49.086Z,280
2019-02-01T12:34:58.794Z,300
2019-02-01T12:36:08.750Z,330
2019-02-01T12:37:18.444Z,360
2019-02-01T12:38:28.418Z,350
2019-02-01T12:39:38.459Z,335
2019-02-01T12:40:47.885Z,335
2019-02-01T12:41:57.833Z,345
2019-02-01T12:43:07.528Z,345
2019-02-01T12:44:17.237Z,340
2019-02-01T12:45:27.216Z,315
2019-02-01T12:46:36.909Z,310
2019-02-01T12:47:46.858Z,295
2019-02-01T12:48:56.571Z,295
2019-02-01T12:50:06.535Z,295
2019-02-01T12:51:16.481Z,285
2019-02-01T12:52:26.183Z,285
2019-02-01T12:53:35.892Z,285
2019-02-01T12:54:45.325Z,290
2019-02-01T12:55:55.276Z,290
2019-02-01T12:57:04.741Z,270
2019-02-01T12:58:14.453Z,250
2019-02-01T12:59:24.160Z,250
2019-02-01T13:00:34.104Z,250
2019-02-01T13:01:43.557Z,255
2019-02-01T13:02:53.534Z,255
2019-02-01T13:04:03.473Z,260
2019-02-01T13:05:13.447Z,255
2019-02-01T13:06:23.475Z,240
2019-02-01T13:07:33.176Z,240
2019-02-01T13:08:43.253Z,230
2019-02-01T13:09:53.201Z,215
2019-02-01T13:11:03.161Z,205
2019-02-01T13:12:13.091Z,205
2019-02-01T13:13:23.022Z,200
2019-02-01T13:14:32.706Z,205
2019-02-01T13:15:42.662Z,210
2019-02-01T13:16:52.373Z,230
2019-02-01T13:18:02.078Z,245
2019-02-01T13:19:11.777Z,230
2019-02-01T13:20:21.618Z,205
2019-02-01T13:21:31.561Z,195
2019-02-01T13:22:41.508Z,195
2019-02-01T13:23:51.197Z,200
2019-02-01T13:25:01.721Z,205
2019-02-01T13:26:11.426Z,200
2019-02-01T13:27:21.404Z,190
2019-02-01T13:28:31.355Z,180
2019-02-01T13:29:41.047Z,170
2019-02-01T13:30:50.998Z,165
2019-02-01T13:32:00.451Z,165
2019-02-01T13:33:10.399Z,165
2019-02-01T13:34:20.113Z,165
2019-02-01T13:35:31.546Z,165
2019-02-01T13:36:43.579Z,160
2019-02-01T13:37:53.391Z,160
2019-02-01T13:39:03.345Z,160
2019-02-01T13:40:13.280Z,165
2019-02-01T13:41:23.263Z,160
2019-02-01T13:42:32.958Z,160
2019-02-01T13:43:42.652Z,160
2019-02-01T13:44:52.630Z,155
2019-02-01T13:46:10.661Z,160
2019-02-01T13:47:20.369Z,170
2019-02-01T13:48:30.075Z,180
2019-02-01T13:49:40.019Z,190
2019-02-01T13:50:49.727Z,200
2019-02-01T13:51:59.219Z,195
2019-02-01T13:53:09.163Z,190
2019-02-01T13:54:18.845Z,195
2019-02-01T13:55:28.276Z,200
2019-02-01T13:56:38.236Z,200
2019-02-01T13:57:47.942Z,190
2019-02-01T13:58:57.884Z,185
2019-02-01T14:00:15.721Z,185
2019-02-01T14:01:25.417Z,185
2019-02-01T14:02:35.123Z,190
2019-02-01T14:03:45.328Z,200
2019-02-01T14:04:55.035Z,210
2019-02-01T14:06:05.072Z,220
2019-02-01T14:07:14.783Z,235
2019-02-01T14:08:24.478Z,245
2019-02-01T14:09:34.457Z,240
2019-02-01T14:10:44.191Z,235
2019-02-01T14:11:53.886Z,220
2019-02-01T14:13:04.031Z,205
2019-02-01T14:14:22.450Z,190
2019-02-01T14:15:34.677Z,175
2019-02-01T14:16:44.406Z,170
2019-02-01T14:17:53.851Z,165
2019-02-01T14:19:05.727Z,160
2019-02-01T14:20:15.439Z,160
2019-02-01T14:21:25.205Z,155
2019-02-01T14:22:35.351Z,150
2019-02-01T14:23:55.737Z,145
2019-02-01T14:25:08.422Z,150
2019-02-01T14:26:18.315Z,145
2019-02-01T14:27:28.255Z,150
2019-02-01T14:28:37.985Z,155
2019-02-01T14:29:47.691Z,165
2019-02-01T14:30:57.407Z,165
2019-02-01T14:32:07.111Z,165
2019-02-01T14:33:16.812Z,165
2019-02-01T14:34:26.759Z,165
2019-02-01T14:35:36.476Z,165
2019-02-01T14:36:46.199Z,160
2019-02-01T14:37:56.171Z,145
2019-02-01T14:39:05.856Z,140
2019-02-01T14:40:15.549Z,135
2019-02-01T14:41:25.503Z,135
2019-02-01T14:42:35.441Z,130
2019-02-01T14:43:45.408Z,120
2019-02-01T14:44:55.366Z,110
2019-02-01T14:46:16.849Z,105
2019-02-01T14:47:26.819Z,105
2019-02-01T14:48:47.723Z,105
2019-02-01T14:49:57.923Z,110
2019-02-01T14:51:07.901Z,115
2019-02-01T14:52:17.876Z,120
2019-02-01T14:53:27.835Z,120
2019-02-01T14:54:37.790Z,120
2019-02-01T14:55:47.238Z,120
2019-02-01T14:56:57.173Z,120
2019-02-01T14:58:07.120Z,110
2019-02-01T14:59:17.587Z,105
2019-02-01T15:00:27.055Z,100
2019-02-01T15:01:37.115Z,85
2019-02-01T15:02:46.566Z,75
2019-02-01T15:03:56.395Z,75
2019-02-01T15:05:05.869Z,70
2019-02-01T15:06:16.591Z,65
2019-02-01T15:07:26.557Z,60
2019-02-01T15:08:36.510Z,60
2019-02-01T15:09:45.957Z,55
2019-02-01T15:10:55.645Z,55
2019-02-01T15:12:05.593Z,55
2019-02-01T15:13:15.299Z,50
2019-02-01T15:14:25.264Z,45
2019-02-01T15:15:35.345Z,45
2019-02-01T15:16:48.659Z,40
2019-02-01T15:17:58.739Z,35
2019-02-01T15:19:08.681Z,35
2019-02-01T15:20:18.140Z,35
2019-02-01T15:21:28.084Z,30
2019-02-01T15:22:38.029Z,30
2019-02-01T15:23:47.719Z,25
2019-02-01T15:24:57.676Z,25
2019-02-01T15:26:07.359Z,20
2019-02-01T15:27:18.291Z,20
2019-02-01T15:28:28.125Z,20
2019-02-01T15:29:38.082Z,20
2019-02-01T15:30:48.053Z,15
2019-02-01T15:31:58.018Z,15
2019-02-01T15:33:07.730Z,15
2019-02-01T15:34:17.673Z,15
2019-02-01T15:35:27.103Z,15
2019-02-01T15:36:36.817Z,10
2019-02-01T15:37:59.758Z,10
2019-02-01T15:39:09.860Z,10
2019-02-01T15:40:19.903Z,10
2019-02-01T15:41:29.346Z,10
2019-02-01T15:42:40.651Z,10
2019-02-01T15:43:50.588Z,10
2019-02-01T15:45:00.267Z,5
2019-02-01T15:46:10.105Z,5
2019-02-01T15:47:20.041Z,5
2019-02-01T15:48:29.783Z,5
2019-02-01T15:49:39.721Z,5
2019-02-01T15:50:49.693Z,5
2019-02-01T15:51:59.622Z,5
2019-02-01T15:53:09.734Z,5
2019-02-01T15:54:35.042Z,0
2019-02-01T15:55:45.008Z,0
2019-02-01T15:56:54.975Z,0
2019-02-01T15:58:04.959Z,0
2019-02-01T15:59:14.936Z,0
2019-02-01T16:00:25.018Z,0
2019-02-01T16:01:34.975Z,0
2019-02-01T16:02:44.416Z,0
2019-02-01T16:03:56.660Z,0
2019-02-01T16:05:06.600Z,0
2019-02-01T16:06:16.565Z,0
2019-02-01T16:07:26.519Z,0
2019-02-01T16:08:36.476Z,0
2019-02-01T16:09:57.769Z,0
2019-02-01T16:11:07.720Z,0
2019-02-01T16:12:17.669Z,0
2019-02-01T16:13:27.617Z,0
2019-02-01T16:14:37.567Z,0
2019-02-01T16:15:47.520Z,0
2019-02-01T16:16:57.461Z,0
2019-02-01T16:18:07.414Z,0
2019-02-01T16:19:17.377Z,0
2019-02-01T16:20:27.418Z,0
2019-02-01T16:21:37.372Z,0
2019-02-01T16:22:46.815Z,0
2019-02-01T16:24:08.629Z,0
2019-02-01T16:25:18.572Z,0
2019-02-01T16:26:28.256Z,0
2019-02-01T16:27:37.964Z,0
2019-02-01T16:28:47.915Z,0
2019-02-01T16:29:57.627Z,0
2019-02-01T16:31:07.602Z,0
2019-02-01T16:32:16.784Z,0
2019-02-01T16:33:26.727Z,0
2019-02-01T16:34:36.679Z,0
2019-02-01T16:35:48.690Z,0
2019-02-01T16:36:58.626Z,0
2019-02-01T16:38:08.582Z,0
2019-02-01T16:39:18.521Z,0
2019-02-01T16:40:28.503Z,0
2019-02-01T16:41:38.435Z,0